Time;durP1;ratioP1;P1;durP2;ratioP2;P2;SDS_P1;SDS_P2;PMS_P1;PMS_P2;Temp;Humidity;BMP_temperature;BMP_pressure;BME280_temperature;BME280_humidity;BME280_pressure;Samples;Min_cycle;Max_cycle;Signal;HPM_P1;HPM_P2
2022/06/24 00:00:18;;;;;;;6.85;5.55;;;;;;;25.96;35.55;99990.31;681702;29;1324;-80
2022/06/24 00:00:41;;;;;;;6.35;5.75;;;;;;;25.91;35.63;99977.19;682647;29;1093;-80
2022/06/24 00:01:02;;;;;;;6.90;6.20;;;;;;;25.91;35.65;99981.66;681951;29;1344;-80
2022/06/24 00:01:24;;;;;;;6.90;6.20;;;;;;;25.96;35.69;99993.88;685294;28;1189;-80
2022/06/24 00:01:59;;;;;;;7.28;5.93;;;;;;;25.90;35.70;99975.47;682789;29;1074;-80
2022/06/24 00:02:20;;;;;;;6.30;5.50;;;;;;;25.88;35.59;99974.69;682085;29;1939;-80
2022/06/24 00:02:47;;;;;;;7.13;6.00;;;;;;;25.84;35.66;99976.63;682587;29;1126;-80
2022/06/24 00:03:16;;;;;;;7.00;6.30;;;;;;;25.86;35.65;99980.09;684459;28;1803;-80
2022/06/24 00:03:46;;;;;;;6.55;6.05;;;;;;;25.81;35.74;99966.09;684559;28;1137;-79
2022/06/24 00:04:07;;;;;;;6.05;5.55;;;;;;;25.82;35.50;99972.31;687697;28;1943;-80
2022/06/24 00:04:30;;;;;;;6.50;5.90;;;;;;;25.80;35.70;99968.81;683316;28;1329;-80
2022/06/24 00:04:54;;;;;;;6.60;5.93;;;;;;;25.82;35.57;99977.66;685285;28;1202;-80
2022/06/24 00:05:15;;;;;;;6.50;5.90;;;;;;;25.79;35.61;99962.63;685116;28;1807;-80
2022/06/24 00:05:36;;;;;;;6.30;5.70;;;;;;;25.83;35.63;99966.84;682587;29;1109;-80
2022/06/24 00:05:57;;;;;;;6.40;5.80;;;;;;;25.75;35.73;99961.00;682627;29;1093;-80
2022/06/24 00:06:18;;;;;;;6.60;5.90;;;;;;;25.76;35.71;99962.75;681616;29;2071;-80
2022/06/24 00:06:46;;;;;;;6.63;5.90;;;;;;;25.77;35.67;99969.84;682876;28;1201;-80
2022/06/24 00:07:16;;;;;;;6.38;5.70;;;;;;;25.78;35.66;99966.25;685169;28;1327;-79
2022/06/24 00:07:48;;;;;;;6.55;5.50;;;;;;;25.74;35.82;99964.63;681896;29;1123;-80
2022/06/24 00:08:23;;;;;;;6.00;5.40;;;;;;;25.72;35.68;99964.72;681956;29;1958;-81
2022/06/24 00:09:02;;;;;;;6.15;5.50;;;;;;;25.68;35.82;99955.09;680071;29;1015;-81
2022/06/24 00:09:29;;;;;;;6.30;5.80;;;;;;;25.68;35.89;99965.78;685242;28;1589;-79
2022/06/24 00:09:51;;;;;;;6.32;5.72;;;;;;;25.68;35.78;99971.13;681702;28;1471;-80
2022/06/24 00:10:13;;;;;;;6.30;5.70;;;;;;;25.71;35.66;99976.31;684486;28;1813;-80
2022/06/24 00:10:36;;;;;;;6.53;5.93;;;;;;;25.68;35.94;99971.13;682545;29;921;-80
2022/06/24 00:11:11;;;;;;;6.47;5.93;;;;;;;25.67;36.05;99964.06;679979;28;1445;-79
2022/06/24 00:11:34;;;;;;;6.18;5.57;;;;;;;25.59;35.69;99955.53;677277;29;834;-80
2022/06/24 00:12:06;;;;;;;6.40;5.80;;;;;;;25.62;36.04;99960.72;682535;29;1159;-80
2022/06/24 00:12:27;;;;;;;6.47;5.97;;;;;;;25.60;35.99;99958.16;687899;28;1028;-80
2022/06/24 00:12:50;;;;;;;6.10;5.60;;;;;;;25.63;35.87;99978.47;682161;29;2323;-80
2022/06/24 00:13:11;;;;;;;6.47;5.88;;;;;;;25.54;35.89;99958.44;683101;28;1217;-80
2022/06/24 00:13:39;;;;;;;6.57;5.80;;;;;;;25.62;36.00;99962.56;682435;29;1207;-79
2022/06/24 00:14:10;;;;;;;7.50;5.80;;;;;;;25.59;36.11;99966.22;682487;28;1229;-80
2022/06/24 00:14:31;;;;;;;6.75;5.63;;;;;;;25.59;36.07;99963.56;681098;29;1124;-80
2022/06/24 00:14:59;;;;;;;7.38;5.85;;;;;;;25.59;35.94;99966.22;685383;28;970;-80
2022/06/24 00:15:29;;;;;;;6.30;5.80;;;;;;;25.55;35.96;99959.28;680371;29;1649;-80
2022/06/24 00:15:50;;;;;;;6.10;5.60;;;;;;;25.53;35.85;99958.50;680344;29;1598;-81
2022/06/24 00:16:10;;;;;;;6.05;5.55;;;;;;;25.54;36.13;99962.91;682259;29;2532;-80
2022/06/24 00:16:31;;;;;;;6.80;5.50;;;;;;;25.46;36.04;99950.78;680670;29;1197;-80
2022/06/24 00:17:03;;;;;;;7.32;5.90;;;;;;;25.55;35.96;99965.50;685270;28;1576;-80
2022/06/24 00:17:28;;;;;;;6.70;6.00;;;;;;;25.50;35.72;99961.34;679664;28;2011;-80
2022/06/24 00:17:48;;;;;;;6.10;5.50;;;;;;;25.44;36.03;99952.66;687648;28;1183;-80
2022/06/24 00:18:13;;;;;;;6.00;5.33;;;;;;;25.44;36.19;99950.00;687629;28;1849;-80
2022/06/24 00:18:33;;;;;;;6.75;5.50;;;;;;;25.46;35.92;99950.78;685130;28;2076;-80
2022/06/24 00:19:13;;;;;;;6.47;5.70;;;;;;;25.45;36.10;99953.53;683474;28;2032;-80
2022/06/24 00:19:52;;;;;;;6.10;5.60;;;;;;;25.43;35.94;99948.28;680777;29;1217;-79
2022/06/24 00:20:18;;;;;;;6.20;5.70;;;;;;;25.50;35.92;99956.00;678109;29;1623;-79
2022/06/24 00:20:47;;;;;;;6.40;5.80;;;;;;;25.47;35.86;99952.50;681697;29;1259;-80
2022/06/24 00:21:12;;;;;;;7.65;5.80;;;;;;;25.50;35.75;99961.34;683771;28;1950;-80
2022/06/24 00:21:33;;;;;;;8.05;5.93;;;;;;;25.43;35.96;99956.28;683767;28;1022;-80
2022/06/24 00:21:58;;;;;;;7.97;6.28;;;;;;;25.47;35.93;99963.19;684938;28;1482;-80
2022/06/24 00:22:20;;;;;;;7.22;6.25;;;;;;;25.42;35.88;99954.56;686707;28;1964;-80
2022/06/24 00:22:44;;;;;;;7.20;6.50;;;;;;;25.43;35.96;99956.28;684840;28;1265;-80
2022/06/24 00:23:08;;;;;;;6.80;6.20;;;;;;;25.41;36.04;99952.81;682522;28;1026;-80
2022/06/24 00:23:28;;;;;;;6.72;6.13;;;;;;;25.42;35.87;99961.69;685938;28;1846;-80
2022/06/24 00:23:49;;;;;;;6.30;5.80;;;;;;;25.39;35.96;99949.34;677320;29;1346;-80
2022/06/24 00:24:21;;;;;;;6.88;6.07;;;;;;;25.44;35.87;99958.00;679663;29;1614;-80
2022/06/24 00:24:42;;;;;;;8.50;6.03;;;;;;;25.43;35.89;99963.41;679840;29;1211;-80
2022/06/24 00:25:09;;;;;;;7.68;5.95;;;;;;;25.42;35.89;99962.56;677293;29;1178;-80
2022/06/24 00:25:36;;;;;;;6.88;5.80;;;;;;;25.41;35.85;99960.84;679829;29;891;-81
2022/06/24 00:25:57;;;;;;;6.60;5.50;;;;;;;25.37;36.17;99951.22;679894;29;1193;-79
2022/06/24 00:26:18;;;;;;;6.68;5.97;;;;;;;25.40;36.01;99960.91;679634;29;1573;-80
2022/06/24 00:26:42;;;;;;;6.30;5.70;;;;;;;25.32;35.98;99946.09;685110;28;1041;-80
2022/06/24 00:27:15;;;;;;;6.25;5.65;;;;;;;25.38;35.99;99962.78;682184;28;1265;-80
2022/06/24 00:27:37;;;;;;;5.95;5.45;;;;;;;25.38;35.88;99960.97;685899;28;1377;-80
2022/06/24 00:28:10;;;;;;;6.40;5.80;;;;;;;25.40;35.78;99961.75;682574;29;1113;-80
2022/06/24 00:28:32;;;;;;;6.60;6.00;;;;;;;25.38;35.81;99957.44;677226;29;1390;-80
2022/06/24 00:29:00;;;;;;;6.60;6.00;;;;;;;25.36;35.87;99957.50;681573;29;1042;-79
2022/06/24 00:29:21;;;;;;;6.47;5.90;;;;;;;25.30;36.04;99949.78;680660;29;1902;-79
2022/06/24 00:29:42;;;;;;;6.50;5.90;;;;;;;25.30;36.00;99949.78;681981;28;1179;-79
2022/06/24 00:30:13;;;;;;;6.87;5.90;;;;;;;25.35;36.08;99955.78;682718;28;1062;-80
2022/06/24 00:30:38;;;;;;;7.80;6.00;;;;;;;25.35;35.92;99958.44;682509;28;1097;-80
2022/06/24 00:31:02;;;;;;;6.40;5.80;;;;;;;25.28;36.07;99951.66;682642;29;1025;-80
2022/06/24 00:31:24;;;;;;;6.10;5.50;;;;;;;25.28;35.98;99949.00;682484;28;1821;-79
2022/06/24 00:32:00;;;;;;;6.47;5.68;;;;;;;25.33;35.98;99960.34;682313;29;1077;-80
2022/06/24 00:32:31;;;;;;;6.45;5.75;;;;;;;25.32;36.12;99958.56;682600;28;1897;-80
2022/06/24 00:33:11;;;;;;;6.28;5.68;;;;;;;25.30;35.73;99956.00;685110;28;1551;-80
2022/06/24 00:33:34;;;;;;;6.53;5.85;;;;;;;25.25;35.90;99949.16;681990;28;1054;-80
2022/06/24 00:33:55;;;;;;;6.18;5.55;;;;;;;25.25;35.59;99950.00;683718;28;1814;-80
2022/06/24 00:34:23;;;;;;;6.75;5.60;;;;;;;25.23;35.89;99954.56;682409;29;1614;-80
2022/06/24 00:34:44;;;;;;;7.60;5.40;;;;;;;25.26;35.84;99950.88;682642;29;1068;-80
2022/06/24 00:35:11;;;;;;;6.78;5.40;;;;;;;25.26;35.97;99953.53;687896;28;1129;-80
2022/06/24 00:35:37;;;;;;;6.35;5.75;;;;;;;25.17;35.98;99944.16;685355;28;1515;-80
2022/06/24 00:35:59;;;;;;;6.47;5.90;;;;;;;25.21;35.87;99955.56;684699;28;1759;-80
2022/06/24 00:36:20;;;;;;;8.40;5.90;;;;;;;25.16;36.03;99945.94;684776;28;1368;-79
2022/06/24 00:36:40;;;;;;;9.00;5.77;;;;;;;25.18;36.08;99944.09;680181;29;1360;-80
2022/06/24 00:37:24;;;;;;;9.82;5.63;;;;;;;25.25;36.08;99960.69;682856;28;1185;-80
2022/06/24 00:37:46;;;;;;;7.15;5.50;;;;;;;25.16;36.26;99943.28;681962;29;1367;-80
2022/06/24 00:38:28;;;;;;;6.00;5.40;;;;;;;25.22;36.12;99951.94;682404;29;1689;-80
2022/06/24 00:38:51;;;;;;;6.07;5.47;;;;;;;25.15;36.04;99946.88;675843;29;1453;-80
2022/06/24 00:39:12;;;;;;;6.88;5.60;;;;;;;25.16;36.00;99953.09;677117;29;1208;-80
2022/06/24 00:39:34;;;;;;;7.35;5.63;;;;;;;25.13;36.29;99948.75;679380;29;1171;-80
2022/06/24 00:40:00;;;;;;;6.57;5.72;;;;;;;25.14;36.43;99947.81;682421;29;1328;-80
2022/06/24 00:40:24;;;;;;;6.60;6.00;;;;;;;25.12;36.37;99947.03;682222;28;1171;-80
2022/06/24 00:40:47;;;;;;;6.30;5.85;;;;;;;25.08;36.21;99948.06;679868;29;976;-80
2022/06/24 00:41:08;;;;;;;6.20;5.68;;;;;;;25.10;36.40;99946.25;682328;29;1367;-80
2022/06/24 00:41:31;;;;;;;5.93;5.40;;;;;;;25.08;36.26;99949.88;683338;28;1077;-80
2022/06/24 00:41:53;;;;;;;6.10;5.50;;;;;;;25.03;36.48;99942.09;677102;29;1225;-80
2022/06/24 00:42:15;;;;;;;6.10;5.60;;;;;;;25.00;36.51;99945.75;678114;29;1919;-80
2022/06/24 00:42:41;;;;;;;5.70;5.30;;;;;;;25.05;36.30;99957.09;684133;28;1863;-79
2022/06/24 00:43:02;;;;;;;5.72;5.22;;;;;;;25.00;36.58;99945.75;682538;29;1034;-80
2022/06/24 00:43:33;;;;;;;5.88;5.35;;;;;;;25.05;36.62;99950.88;679850;28;1214;-79
2022/06/24 00:43:58;;;;;;;6.30;5.75;;;;;;;25.02;36.46;99948.38;684092;28;1224;-80
2022/06/24 00:44:21;;;;;;;6.47;5.88;;;;;;;24.97;36.29;99947.72;683119;28;1577;-80
2022/06/24 00:44:48;;;;;;;6.47;5.88;;;;;;;24.92;36.47;99937.25;684802;28;1093;-80
2022/06/24 00:45:31;;;;;;;6.30;5.70;;;;;;;25.00;36.41;99958.22;685129;28;1109;-79
2022/06/24 00:45:58;;;;;;;6.28;5.68;;;;;;;24.96;36.42;99943.31;684998;28;974;-79
2022/06/24 00:46:26;;;;;;;6.10;5.43;;;;;;;24.97;36.50;99942.38;689797;28;1350;-80
2022/06/24 00:46:48;;;;;;;8.95;5.53;;;;;;;25.00;36.18;99948.44;687726;28;1305;-80
2022/06/24 00:47:12;;;;;;;9.30;5.80;;;;;;;24.97;36.37;99947.72;687729;28;1465;-80
2022/06/24 00:47:36;;;;;;;6.10;5.60;;;;;;;24.97;36.38;99950.38;678471;29;1227;-81
2022/06/24 00:47:57;;;;;;;6.10;5.60;;;;;;;24.99;36.44;99948.50;682481;29;1096;-80
2022/06/24 00:48:21;;;;;;;6.00;5.50;;;;;;;24.89;36.42;99940.91;680024;29;1375;-80
2022/06/24 00:48:47;;;;;;;6.30;5.63;;;;;;;24.88;36.70;99939.19;679784;29;1267;-80
2022/06/24 00:49:10;;;;;;;6.60;5.30;;;;;;;24.96;36.61;99954.84;682456;29;1637;-79
2022/06/24 00:49:31;;;;;;;6.15;5.30;;;;;;;24.89;36.51;99946.25;684676;28;1184;-80
2022/06/24 00:49:54;;;;;;;5.88;5.38;;;;;;;24.86;36.63;99941.06;682193;29;1167;-80
2022/06/24 00:50:20;;;;;;;6.05;5.55;;;;;;;24.93;36.58;99955.00;677136;29;1359;-80
2022/06/24 00:50:47;;;;;;;6.07;5.50;;;;;;;24.92;36.76;99946.09;684435;28;1224;-80
2022/06/24 00:51:09;;;;;;;5.95;5.45;;;;;;;24.92;36.63;99951.44;682265;29;1858;-80
2022/06/24 00:51:36;;;;;;;6.10;5.50;;;;;;;24.87;36.50;99942.78;681627;29;1728;-80
2022/06/24 00:51:57;;;;;;;6.13;5.50;;;;;;;24.92;36.55;99951.44;679716;29;1217;-79
2022/06/24 00:52:19;;;;;;;6.28;5.50;;;;;;;24.87;36.46;99948.13;678817;29;1389;-80
2022/06/24 00:52:40;;;;;;;6.18;5.30;;;;;;;24.92;36.41;99951.44;684695;28;1207;-81
2022/06/24 00:53:01;;;;;;;5.80;5.30;;;;;;;24.89;36.49;99950.75;685236;28;1177;-79
2022/06/24 00:53:22;;;;;;;6.85;5.32;;;;;;;24.88;36.38;99944.53;684748;28;1754;-79
2022/06/24 00:53:53;;;;;;;6.88;5.30;;;;;;;24.90;36.76;99953.31;677130;29;1158;-80
2022/06/24 00:54:15;;;;;;;8.73;5.50;;;;;;;24.83;36.51;99941.19;680656;29;1895;-80
2022/06/24 00:54:35;;;;;;;6.20;5.40;;;;;;;24.86;36.56;99948.19;679764;29;1195;-79
2022/06/24 00:54:56;;;;;;;6.85;5.57;;;;;;;24.87;36.59;99948.13;680005;29;1277;-80
2022/06/24 00:55:20;;;;;;;6.30;5.70;;;;;;;24.84;36.65;99945.59;684252;28;1386;-79
2022/06/24 00:55:42;;;;;;;6.13;5.53;;;;;;;24.87;36.71;99945.47;679747;29;1507;-80
2022/06/24 00:56:04;;;;;;;6.18;5.60;;;;;;;24.88;36.70;99957.88;677068;29;1393;-80
2022/06/24 00:56:26;;;;;;;6.10;5.50;;;;;;;24.79;36.52;99934.28;676611;29;1730;-79
2022/06/24 00:56:47;;;;;;;7.53;5.83;;;;;;;24.87;36.75;99958.81;677235;29;1463;-80
2022/06/24 00:57:08;;;;;;;8.40;6.00;;;;;;;24.83;36.71;99945.69;679844;29;954;-80
2022/06/24 00:57:36;;;;;;;8.40;5.70;;;;;;;24.85;36.75;99957.13;684564;28;1083;-80
2022/06/24 00:57:58;;;;;;;7.00;5.50;;;;;;;24.73;36.86;99932.75;684982;28;1230;-79
2022/06/24 00:58:19;;;;;;;6.00;5.40;;;;;;;24.77;36.77;99937.00;684954;28;1411;-79
2022/06/24 00:58:48;;;;;;;6.10;5.30;;;;;;;24.72;36.81;99932.81;679746;29;1254;-80
2022/06/24 00:59:09;;;;;;;7.90;5.50;;;;;;;24.77;36.75;99942.34;682167;29;1535;-80
2022/06/24 00:59:35;;;;;;;7.40;5.50;;;;;;;24.76;36.72;99939.72;679204;29;1465;-80
2022/06/24 00:59:55;;;;;;;6.05;5.50;;;;;;;24.71;36.69;99931.94;684675;28;1613;-80
2022/06/24 01:00:17;;;;;;;5.90;5.40;;;;;;;24.75;36.99;99938.00;684984;28;1297;-80
2022/06/24 01:00:45;;;;;;;5.90;5.40;;;;;;;24.77;36.92;99938.81;684299;28;1483;-79
2022/06/24 01:01:07;;;;;;;5.78;5.28;;;;;;;24.71;36.84;99931.09;684836;28;1463;-79
2022/06/24 01:01:35;;;;;;;5.90;5.40;;;;;;;24.77;36.69;99946.81;683083;28;848;-80
2022/06/24 01:01:57;;;;;;;6.30;5.80;;;;;;;24.72;36.81;99936.31;683364;28;1569;-80
2022/06/24 01:02:18;;;;;;;6.47;5.88;;;;;;;24.72;36.67;99940.81;684629;28;1918;-79
2022/06/24 01:02:41;;;;;;;6.75;5.75;;;;;;;24.77;36.69;99947.66;685050;28;1101;-80
2022/06/24 01:03:04;;;;;;;6.60;5.60;;;;;;;24.76;36.60;99937.94;683887;28;2020;-79
2022/06/24 01:03:36;;;;;;;5.90;5.40;;;;;;;24.73;36.82;99939.88;679485;29;1203;-80
2022/06/24 01:03:58;;;;;;;5.75;5.25;;;;;;;24.75;36.90;99943.34;679762;29;1266;-80
2022/06/24 01:04:19;;;;;;;7.45;5.70;;;;;;;24.74;36.69;99938.94;681498;29;1996;-80
2022/06/24 01:04:40;;;;;;;6.70;5.47;;;;;;;24.67;36.65;99924.13;682359;29;1169;-80
2022/06/24 01:05:08;;;;;;;6.75;5.45;;;;;;;24.70;36.71;99935.53;682564;29;810;-80
2022/06/24 01:05:30;;;;;;;5.95;5.35;;;;;;;24.71;36.78;99937.28;679904;29;1172;-80
2022/06/24 01:05:51;;;;;;;6.20;5.50;;;;;;;24.66;36.55;99925.97;682625;29;1058;-81
2022/06/24 01:06:11;;;;;;;6.10;5.50;;;;;;;24.72;36.76;99943.47;684856;28;1980;-79
2022/06/24 01:06:32;;;;;;;6.27;5.67;;;;;;;24.64;36.83;99931.34;685166;28;1066;-80
2022/06/24 01:06:53;;;;;;;6.90;6.00;;;;;;;24.66;36.97;99925.97;684823;28;1539;-80
2022/06/24 01:07:14;;;;;;;6.63;5.65;;;;;;;24.62;36.93;99930.56;682251;29;1198;-80
2022/06/24 01:07:40;;;;;;;6.15;5.55;;;;;;;24.64;36.86;99928.69;687759;28;1340;-80
2022/06/24 01:08:12;;;;;;;6.30;5.70;;;;;;;24.70;36.97;99938.22;682567;29;863;-79
2022/06/24 01:08:33;;;;;;;6.00;5.50;;;;;;;24.64;37.05;99928.69;682305;29;1286;-80
2022/06/24 01:08:55;;;;;;;5.57;5.07;;;;;;;24.66;37.06;99936.63;685135;28;1182;-80
2022/06/24 01:09:19;;;;;;;6.10;5.50;;;;;;;24.67;36.82;99940.16;684957;28;1418;-79
2022/06/24 01:09:40;;;;;;;6.22;5.63;;;;;;;24.62;36.87;99935.91;687143;28;1228;-80
2022/06/24 01:10:01;;;;;;;7.50;5.80;;;;;;;24.62;36.98;99930.56;681802;29;1268;-80
2022/06/24 01:10:23;;;;;;;6.00;5.40;;;;;;;24.59;37.02;99922.69;678794;29;2007;-80
2022/06/24 01:10:48;;;;;;;6.10;5.40;;;;;;;24.65;36.79;99930.41;682519;29;1116;-80
2022/06/24 01:11:09;;;;;;;5.78;5.28;;;;;;;24.62;36.79;99933.22;681828;29;1120;-79
2022/06/24 01:11:37;;;;;;;7.03;5.50;;;;;;;24.62;36.70;99930.56;677107;29;1329;-80
2022/06/24 01:11:58;;;;;;;7.10;5.50;;;;;;;24.68;36.89;99936.53;682833;28;1520;-80
2022/06/24 01:12:19;;;;;;;5.80;5.30;;;;;;;24.72;36.63;99938.16;682910;28;1541;-79
2022/06/24 01:12:49;;;;;;;5.53;5.10;;;;;;;24.74;36.62;99941.59;687093;28;1407;-80
2022/06/24 01:13:11;;;;;;;5.80;5.30;;;;;;;24.70;36.66;99929.34;684883;28;1256;-79
2022/06/24 01:13:31;;;;;;;5.72;5.22;;;;;;;24.73;36.75;99923.88;685137;28;1254;-79
2022/06/24 01:13:53;;;;;;;6.83;5.40;;;;;;;24.73;36.75;99930.09;682458;29;1267;-80
2022/06/24 01:14:14;;;;;;;6.95;5.50;;;;;;;24.73;36.32;99929.22;682236;29;1502;-80
2022/06/24 01:14:35;;;;;;;7.05;5.70;;;;;;;24.80;36.47;99938.66;682281;28;1193;-79
2022/06/24 01:14:55;;;;;;;6.37;5.77;;;;;;;24.79;36.25;99935.13;682021;29;1341;-80
2022/06/24 01:15:16;;;;;;;6.40;5.80;;;;;;;24.79;36.61;99931.59;683545;28;1634;-79
2022/06/24 01:15:38;;;;;;;6.00;5.50;;;;;;;24.87;36.62;99939.25;682564;29;1144;-79
2022/06/24 01:15:58;;;;;;;6.00;5.50;;;;;;;24.87;36.47;99942.78;679580;29;1535;-80
2022/06/24 01:16:21;;;;;;;6.00;5.50;;;;;;;24.91;36.14;99947.03;679759;29;1118;-80
2022/06/24 01:16:42;;;;;;;5.82;5.32;;;;;;;24.86;36.43;99949.06;677148;29;1457;-81
2022/06/24 01:17:04;;;;;;;5.90;5.30;;;;;;;24.91;36.30;99963.06;680642;29;1879;-80
2022/06/24 01:17:25;;;;;;;6.73;5.20;;;;;;;24.94;36.19;99974.53;685138;28;1204;-81
2022/06/24 01:17:45;;;;;;;7.90;5.40;;;;;;;24.82;36.20;99960.81;687628;28;1707;-81
2022/06/24 01:18:07;;;;;;;8.18;5.40;;;;;;;24.91;36.09;99965.72;682276;29;1483;-80
2022/06/24 01:18:28;;;;;;;6.65;5.30;;;;;;;24.86;36.12;99957.06;684399;28;1392;-80
2022/06/24 01:18:51;;;;;;;6.73;5.30;;;;;;;24.91;36.04;99972.88;685341;28;1474;-81
2022/06/24 01:19:14;;;;;;;6.13;5.40;;;;;;;24.97;36.18;99983.28;686878;28;1670;-80
2022/06/24 01:19:35;;;;;;;6.13;5.45;;;;;;;24.99;36.03;99991.19;683489;28;1249;-80
2022/06/24 01:19:56;;;;;;;6.53;5.35;;;;;;;24.99;35.89;99993.88;676966;29;1166;-80
2022/06/24 01:20:17;;;;;;;6.15;5.25;;;;;;;24.99;36.02;99988.53;682269;28;1546;-80
2022/06/24 01:20:38;;;;;;;5.85;5.20;;;;;;;24.92;35.96;99978.13;687667;28;1388;-80
2022/06/24 01:20:58;;;;;;;5.60;5.20;;;;;;;24.90;35.93;99984.50;682361;29;1369;-80
2022/06/24 01:21:35;;;;;;;5.70;5.28;;;;;;;24.95;36.07;99987.78;682541;28;1777;-80
2022/06/24 01:21:56;;;;;;;6.28;5.30;;;;;;;24.92;35.98;99991.47;679820;29;988;-81
2022/06/24 01:22:24;;;;;;;6.20;5.20;;;;;;;24.97;36.19;100006.41;677612;29;1981;-80
2022/06/24 01:22:45;;;;;;;6.35;5.65;;;;;;;24.95;36.23;100009.16;677204;29;956;-80
2022/06/24 01:23:05;;;;;;;6.75;5.90;;;;;;;24.89;36.40;99988.94;677337;29;1191;-80
2022/06/24 01:23:26;;;;;;;6.38;5.78;;;;;;;24.86;36.42;99993.56;680057;29;1894;-79
2022/06/24 01:23:47;;;;;;;6.20;5.60;;;;;;;24.83;36.31;99983.88;685049;28;1694;-79
2022/06/24 01:24:11;;;;;;;5.80;5.30;;;;;;;24.87;36.39;99990.81;678821;29;1207;-79
2022/06/24 01:24:31;;;;;;;5.90;5.40;;;;;;;24.87;36.57;99996.16;680895;29;1115;-80
2022/06/24 01:24:54;;;;;;;5.90;5.40;;;;;;;24.89;36.61;99994.28;685242;28;951;-80
2022/06/24 01:25:15;;;;;;;6.10;5.53;;;;;;;24.84;36.55;99990.09;685191;28;1411;-80
2022/06/24 01:25:36;;;;;;;6.22;5.63;;;;;;;24.84;36.53;100001.63;684285;28;1144;-79
2022/06/24 01:25:57;;;;;;;6.30;5.80;;;;;;;24.85;36.69;99995.38;679873;29;1062;-80
2022/06/24 01:26:17;;;;;;;6.10;5.60;;;;;;;24.79;36.58;99985.81;679816;29;1268;-79
2022/06/24 01:26:41;;;;;;;6.13;5.63;;;;;;;24.85;36.50;99992.69;679812;29;1479;-79
2022/06/24 01:27:02;;;;;;;6.10;5.60;;;;;;;24.81;36.93;99984.88;677277;29;1016;-79
2022/06/24 01:27:23;;;;;;;6.10;5.60;;;;;;;24.82;36.89;99982.16;682504;28;1183;-79
2022/06/24 01:27:43;;;;;;;5.80;5.30;;;;;;;24.88;36.63;99987.22;685118;28;1149;-80
2022/06/24 01:28:04;;;;;;;5.80;5.30;;;;;;;24.95;36.88;99992.28;685177;28;1380;-79
2022/06/24 01:28:25;;;;;;;5.70;5.20;;;;;;;24.90;36.61;99984.50;682611;28;1422;-81
2022/06/24 01:28:47;;;;;;;6.10;5.50;;;;;;;24.98;36.56;99997.47;684437;28;1308;-80
2022/06/24 01:29:08;;;;;;;6.15;5.55;;;;;;;24.95;36.66;99993.13;680060;29;1357;-80
2022/06/24 01:29:28;;;;;;;6.15;5.60;;;;;;;24.98;36.69;99993.00;682243;29;1239;-80
2022/06/24 01:29:49;;;;;;;6.20;5.60;;;;;;;24.98;36.62;99992.13;678857;29;1543;-79
2022/06/24 01:30:10;;;;;;;6.23;5.63;;;;;;;24.97;36.58;99995.75;682355;29;1882;-79
2022/06/24 01:30:31;;;;;;;6.43;5.82;;;;;;;24.94;36.83;99985.22;684621;28;1208;-79
2022/06/24 01:30:51;;;;;;;6.60;6.00;;;;;;;24.90;36.61;99990.66;679402;29;1141;-80
2022/06/24 01:31:12;;;;;;;6.72;6.13;;;;;;;24.88;36.90;99994.34;679423;29;1385;-80
2022/06/24 01:31:33;;;;;;;6.60;6.00;;;;;;;24.86;37.14;99997.09;678411;29;1543;-80
2022/06/24 01:31:54;;;;;;;6.53;5.93;;;;;;;24.79;37.09;99992.97;679695;29;1215;-80
2022/06/24 01:32:15;;;;;;;6.57;5.97;;;;;;;24.74;36.89;99989.63;679713;29;1162;-80
2022/06/24 01:32:36;;;;;;;6.10;5.60;;;;;;;24.73;37.02;99983.44;682309;28;1275;-79
2022/06/24 01:32:56;;;;;;;6.00;5.50;;;;;;;24.74;36.95;99997.63;682247;29;1538;-79
2022/06/24 01:33:32;;;;;;;5.93;5.43;;;;;;;24.70;37.24;99988.03;679783;29;1606;-79
2022/06/24 01:33:53;;;;;;;6.28;5.70;;;;;;;24.65;37.31;99986.44;679179;29;1556;-81
2022/06/24 01:34:15;;;;;;;6.85;5.65;;;;;;;24.69;37.44;99999.63;685119;28;1517;-81
2022/06/24 01:34:36;;;;;;;6.95;5.68;;;;;;;24.67;37.14;99996.16;682313;29;1194;-80
2022/06/24 01:34:57;;;;;;;6.30;5.80;;;;;;;24.69;37.38;100008.50;682563;29;1096;-79
2022/06/24 01:35:18;;;;;;;6.60;6.00;;;;;;;24.61;37.24;99989.28;684980;28;1553;-80
2022/06/24 01:35:38;;;;;;;6.68;5.88;;;;;;;24.71;37.03;100001.28;681938;29;1467;-80
2022/06/24 01:35:59;;;;;;;6.70;5.70;;;;;;;24.72;37.20;100005.69;679978;29;877;-80
2022/06/24 01:36:19;;;;;;;6.77;5.63;;;;;;;24.73;37.18;100007.44;683301;28;1842;-80
2022/06/24 01:36:40;;;;;;;9.25;5.97;;;;;;;24.69;37.06;99995.16;687250;28;1282;-79
2022/06/24 01:37:02;;;;;;;10.68;6.20;;;;;;;24.71;37.28;99992.44;682567;29;820;-79
2022/06/24 01:37:23;;;;;;;8.93;5.97;;;;;;;24.74;37.24;100000.28;677243;29;1326;-79
2022/06/24 01:37:59;;;;;;;8.05;5.65;;;;;;;24.74;37.31;99992.28;682333;29;1048;-79
2022/06/24 01:38:19;;;;;;;7.45;5.55;;;;;;;24.77;37.22;100001.03;681911;29;1369;-80
2022/06/24 01:38:40;;;;;;;6.23;5.57;;;;;;;24.75;37.25;99992.22;679424;29;1085;-79
2022/06/24 01:39:01;;;;;;;5.93;5.43;;;;;;;24.74;37.05;99994.97;685151;28;1142;-79
2022/06/24 01:39:22;;;;;;;5.75;5.30;;;;;;;24.73;37.50;99987.91;687574;28;1373;-79
2022/06/24 01:39:43;;;;;;;7.47;5.57;;;;;;;24.75;37.32;99994.03;681776;28;1161;-79
2022/06/24 01:40:04;;;;;;;8.00;5.68;;;;;;;24.78;37.29;99992.09;682538;29;1154;-79
2022/06/24 01:40:26;;;;;;;7.90;5.68;;;;;;;24.77;37.14;99994.84;682416;29;1343;-79
2022/06/24 01:40:46;;;;;;;6.13;5.55;;;;;;;24.75;37.21;99994.91;682503;29;891;-79
2022/06/24 01:41:08;;;;;;;6.07;5.47;;;;;;;24.77;37.12;99994.84;683836;28;1427;-79
2022/06/24 01:41:29;;;;;;;6.10;5.50;;;;;;;24.79;37.36;99992.97;679699;29;1234;-79
2022/06/24 01:41:50;;;;;;;6.18;5.57;;;;;;;24.82;37.37;100003.50;682220;29;1443;-79
2022/06/24 01:42:11;;;;;;;6.47;5.82;;;;;;;24.75;37.18;99986.91;682089;29;1805;-80
2022/06/24 01:42:32;;;;;;;7.10;5.70;;;;;;;24.75;37.38;99992.22;682109;28;1207;-79
2022/06/24 01:43:02;;;;;;;6.00;5.40;;;;;;;24.75;37.56;99991.34;678749;29;1866;-79
2022/06/24 01:43:22;;;;;;;6.07;5.47;;;;;;;24.76;37.42;99995.75;675583;29;1592;-79
2022/06/24 01:43:43;;;;;;;5.90;5.40;;;;;;;24.81;37.58;100007.09;677117;29;1078;-79
2022/06/24 01:44:05;;;;;;;6.10;5.50;;;;;;;24.75;37.54;99994.91;675109;29;1926;-79
2022/06/24 01:44:26;;;;;;;6.03;5.43;;;;;;;24.76;37.13;99998.41;679683;29;1278;-79
2022/06/24 01:44:56;;;;;;;6.10;5.50;;;;;;;24.74;37.09;99992.28;679277;29;1659;-80
2022/06/24 01:45:16;;;;;;;6.07;5.65;;;;;;;24.75;37.19;99994.03;678909;29;1580;-80
2022/06/24 01:45:37;;;;;;;6.20;5.70;;;;;;;24.79;37.44;100000.97;681684;29;1058;-79
2022/06/24 01:45:58;;;;;;;6.10;5.60;;;;;;;24.77;37.46;99997.50;682238;28;1547;-80
2022/06/24 01:46:19;;;;;;;6.15;5.65;;;;;;;24.78;37.53;100004.56;678461;29;2031;-80
2022/06/24 01:46:39;;;;;;;6.20;5.70;;;;;;;24.79;37.64;100006.31;682199;29;1282;-80
2022/06/24 01:47:00;;;;;;;6.30;5.80;;;;;;;24.79;37.55;100003.63;682148;29;1213;-79
2022/06/24 01:47:21;;;;;;;6.23;5.73;;;;;;;24.75;37.61;99999.34;681995;28;1729;-79
2022/06/24 01:47:41;;;;;;;6.35;5.65;;;;;;;24.77;37.54;100010.84;682147;28;1349;-80
2022/06/24 01:48:02;;;;;;;6.18;5.57;;;;;;;24.73;37.54;99993.22;677148;29;1424;-80
2022/06/24 01:48:23;;;;;;;6.17;5.57;;;;;;;24.74;37.51;99998.50;681389;29;1476;-79
2022/06/24 01:48:44;;;;;;;5.88;5.38;;;;;;;24.65;37.65;100002.44;684544;28;1669;-80
2022/06/24 01:49:05;;;;;;;6.00;5.50;;;;;;;24.71;37.69;100008.44;679310;29;1391;-80
2022/06/24 01:49:26;;;;;;;6.20;5.60;;;;;;;24.72;37.71;100012.84;682001;29;1149;-80
2022/06/24 01:49:47;;;;;;;6.45;5.80;;;;;;;24.68;37.54;100016.56;681840;29;1106;-80
2022/06/24 01:50:14;;;;;;;6.20;5.60;;;;;;;24.59;37.56;100002.69;683864;28;1943;-80
2022/06/24 01:50:34;;;;;;;5.90;5.40;;;;;;;24.57;37.70;100004.56;681405;29;1461;-80
2022/06/24 01:50:55;;;;;;;6.00;5.50;;;;;;;24.57;37.81;100006.34;685033;28;1087;-80
2022/06/24 01:51:19;;;;;;;5.83;5.33;;;;;;;24.56;37.91;100010.84;682339;29;1364;-80
2022/06/24 01:51:43;;;;;;;6.10;5.50;;;;;;;24.55;38.08;100010.88;684763;28;1231;-80
2022/06/24 01:52:04;;;;;;;6.00;5.50;;;;;;;24.53;38.11;100002.09;687689;28;1146;-80
2022/06/24 01:52:25;;;;;;;6.10;5.50;;;;;;;24.47;38.27;99992.56;682200;28;1546;-80
2022/06/24 01:52:45;;;;;;;6.15;5.55;;;;;;;24.49;38.19;100004.91;682418;29;1298;-80
2022/06/24 01:53:06;;;;;;;6.40;5.80;;;;;;;24.45;38.26;99999.75;682448;29;1347;-80
2022/06/24 01:53:27;;;;;;;6.95;5.80;;;;;;;24.46;38.18;100006.84;679159;29;1333;-79
2022/06/24 01:53:47;;;;;;;6.82;5.60;;;;;;;24.51;38.34;100007.50;676718;29;1459;-81